METAR AND TAF INFORMATION
METAR FOR LTCM
ADDS - METARS form results

(2109 UTC 17 August 2018)
Data provider http://aviationweather.gov/adds/metars/
 
Forecast for: LTCM (SINOP AIRPORT , TR)
Text: TAF LTCM 171340Z 1715/1724 08010KT 9999 FEW036
Forecast period: 1500 UTC 17 August 2018 to 0000 UTC 18 August 2018
Forecast type: FROM: standard forecast or significant change
Winds: from the E (80 degrees) at 12 MPH (10 knots; 5.2 m/s)
Visibility: 6 or more miles (10+ km)
Clouds: few clouds at 3600 feet AGL
Weather: no significant weather forecast for this period

 AIRPORT MAP

 RUNWAY INFORMATION

 AIRPORT FREQUENCIES

 AIRPORT NEAR NAVIGATION AIDS
Type VOR-DME Name Sinop Frequency 114000 KHZ
Type NDB Name Sinop Frequency 465 KHZ



Copyright © 2011 - 2018 BirgenAir Virtual Airlines. All rights reserved. Developed by Goktug Unver